createdAt,value
2017-12-17T00:00:33.266Z,3.20
2017-12-17T00:03:01.618Z,3.20
2017-12-17T00:05:29.244Z,3.20
2017-12-17T00:07:56.805Z,3.20
2017-12-17T00:10:24.385Z,3.20
2017-12-17T00:12:51.941Z,3.20
2017-12-17T00:15:19.494Z,3.20
2017-12-17T00:17:47.057Z,3.20
2017-12-17T00:20:14.658Z,3.20
2017-12-17T00:22:43.114Z,3.20
2017-12-17T00:25:11.463Z,3.20
2017-12-17T00:27:39.027Z,3.20
2017-12-17T00:30:06.610Z,3.20
2017-12-17T00:32:34.182Z,3.20
2017-12-17T00:35:01.759Z,3.20
2017-12-17T00:37:29.330Z,3.20
2017-12-17T00:39:57.661Z,3.20
2017-12-17T00:42:25.257Z,3.10
2017-12-17T00:44:52.836Z,3.20
2017-12-17T00:47:21.172Z,3.20
2017-12-17T00:49:48.945Z,3.20
2017-12-17T00:52:16.575Z,3.20
2017-12-17T00:54:44.339Z,3.20
2017-12-17T00:57:11.947Z,3.20
2017-12-17T00:59:39.512Z,3.20
2017-12-17T01:02:07.063Z,3.20
2017-12-17T01:04:34.649Z,3.20
2017-12-17T01:07:02.215Z,3.20
2017-12-17T01:09:30.545Z,3.20
2017-12-17T01:11:58.096Z,3.20
2017-12-17T01:14:25.687Z,3.20
2017-12-17T01:16:53.263Z,3.20
2017-12-17T01:19:20.840Z,3.20
2017-12-17T01:21:49.203Z,3.10
2017-12-17T01:24:16.773Z,3.10
2017-12-17T01:26:44.533Z,3.10
2017-12-17T01:29:12.105Z,3.10
2017-12-17T01:31:40.473Z,3.10
2017-12-17T01:34:08.041Z,3.10
2017-12-17T01:36:36.391Z,3.10
2017-12-17T01:39:03.975Z,3.10
2017-12-17T01:41:31.581Z,3.10
2017-12-17T01:43:59.127Z,3.10
2017-12-17T01:46:27.452Z,3.00
2017-12-17T01:48:55.179Z,3.00
2017-12-17T01:51:22.749Z,2.90
2017-12-17T01:53:50.328Z,2.80
2017-12-17T01:56:18.017Z,2.70
2017-12-17T01:58:45.582Z,2.60
2017-12-17T02:01:13.231Z,2.60
2017-12-17T02:03:40.815Z,2.60
2017-12-17T02:06:08.377Z,2.70
2017-12-17T02:08:35.966Z,2.70
2017-12-17T02:11:04.302Z,2.70
2017-12-17T02:13:31.866Z,2.70
2017-12-17T02:15:59.434Z,2.70
2017-12-17T02:18:26.973Z,2.70
2017-12-17T02:20:54.571Z,2.70
2017-12-17T02:23:22.106Z,2.70
2017-12-17T02:25:49.662Z,2.60
2017-12-17T02:28:17.235Z,2.60
2017-12-17T02:30:45.568Z,2.60
2017-12-17T02:33:13.106Z,2.60
2017-12-17T02:35:40.842Z,2.70
2017-12-17T02:38:08.388Z,2.70
2017-12-17T02:40:35.971Z,2.70
2017-12-17T02:43:03.592Z,2.70
2017-12-17T02:45:31.102Z,2.70
2017-12-17T02:47:58.704Z,2.70
2017-12-17T02:50:26.183Z,2.70
2017-12-17T02:52:53.823Z,2.70
2017-12-17T02:55:21.361Z,2.70
2017-12-17T02:57:49.694Z,2.70
2017-12-17T03:00:25.850Z,2.70
2017-12-17T03:02:53.549Z,2.80
2017-12-17T03:05:21.094Z,2.80
2017-12-17T03:07:48.661Z,2.80
2017-12-17T03:10:16.232Z,2.80
2017-12-17T03:12:43.991Z,2.80
2017-12-17T03:15:11.542Z,2.70
2017-12-17T03:17:39.087Z,2.80
2017-12-17T03:20:06.681Z,2.80
2017-12-17T03:22:34.202Z,2.70
2017-12-17T03:25:01.753Z,2.70
2017-12-17T03:27:29.321Z,2.70
2017-12-17T03:29:56.867Z,2.70
2017-12-17T03:32:24.407Z,2.70
2017-12-17T03:34:52.725Z,2.70
2017-12-17T03:37:20.259Z,2.60
2017-12-17T03:39:47.842Z,2.70
2017-12-17T03:42:15.409Z,2.60
2017-12-17T03:44:42.963Z,2.60
2017-12-17T03:47:10.526Z,2.60
2017-12-17T03:49:38.079Z,2.50
2017-12-17T03:52:05.654Z,2.50
2017-12-17T03:54:33.213Z,2.40
2017-12-17T03:57:00.774Z,2.30
2017-12-17T03:59:28.367Z,2.30
2017-12-17T04:01:55.893Z,2.30
2017-12-17T04:04:23.445Z,2.30
2017-12-17T04:06:51.001Z,2.20
2017-12-17T04:09:18.579Z,2.20
2017-12-17T04:11:46.105Z,2.20
2017-12-17T04:14:13.713Z,2.20
2017-12-17T04:16:41.257Z,2.10
2017-12-17T04:19:08.833Z,2.10
2017-12-17T04:21:36.395Z,2.00
2017-12-17T04:24:03.990Z,2.00
2017-12-17T04:26:32.325Z,2.00
2017-12-17T04:28:59.883Z,2.00
2017-12-17T04:31:27.446Z,1.90
2017-12-17T04:33:55.152Z,1.90
2017-12-17T04:36:23.473Z,1.70
2017-12-17T04:38:51.044Z,1.70
2017-12-17T04:41:18.605Z,1.60
2017-12-17T04:43:46.260Z,1.50
2017-12-17T04:46:13.810Z,1.40
2017-12-17T04:48:41.391Z,1.40
2017-12-17T04:51:08.982Z,1.40
2017-12-17T04:53:36.649Z,1.50
2017-12-17T04:56:04.402Z,1.50
2017-12-17T04:58:31.945Z,1.60
2017-12-17T05:00:59.522Z,1.70
2017-12-17T05:03:27.109Z,1.80
2017-12-17T05:05:54.744Z,1.80
2017-12-17T05:08:22.465Z,1.90
2017-12-17T05:10:50.096Z,1.90
2017-12-17T05:13:17.668Z,2.00
2017-12-17T05:15:46.017Z,2.00
2017-12-17T05:18:13.613Z,2.00
2017-12-17T05:20:41.951Z,2.10
2017-12-17T05:23:09.590Z,2.10
2017-12-17T05:28:11.333Z,2.10
2017-12-17T05:30:39.671Z,2.10
2017-12-17T05:33:07.237Z,2.10
2017-12-17T05:35:34.800Z,2.00
2017-12-17T05:38:02.435Z,2.00
2017-12-17T05:40:29.994Z,1.90
2017-12-17T05:42:57.581Z,1.80
2017-12-17T05:45:25.142Z,1.80
2017-12-17T05:47:52.813Z,1.70
2017-12-17T05:50:20.470Z,1.70
2017-12-17T05:52:48.137Z,1.90
2017-12-17T05:55:15.734Z,1.90
2017-12-17T05:57:43.497Z,1.90
2017-12-17T06:00:11.111Z,2.00
2017-12-17T06:02:38.655Z,2.00
2017-12-17T06:05:06.229Z,2.10
2017-12-17T06:07:33.810Z,2.10
2017-12-17T06:10:01.470Z,2.10
2017-12-17T06:12:29.150Z,2.10
2017-12-17T06:14:56.739Z,2.10
2017-12-17T06:17:26.362Z,2.00
2017-12-17T06:19:53.990Z,2.10
2017-12-17T06:22:21.621Z,2.00
2017-12-17T06:24:49.165Z,2.00
2017-12-17T06:27:16.771Z,2.00
2017-12-17T06:29:44.869Z,2.00
2017-12-17T06:32:13.283Z,2.10
2017-12-17T06:34:41.036Z,2.00
2017-12-17T06:37:08.585Z,2.10
2017-12-17T06:39:36.925Z,2.10
2017-12-17T06:42:05.266Z,2.20
2017-12-17T06:44:33.079Z,2.10
2017-12-17T06:47:01.414Z,2.10
2017-12-17T06:49:28.937Z,2.10
2017-12-17T06:51:57.648Z,2.10
2017-12-17T06:54:26.378Z,2.10
2017-12-17T06:56:53.950Z,2.20
2017-12-17T06:59:21.502Z,2.10
2017-12-17T07:01:49.037Z,2.20
2017-12-17T07:04:16.604Z,2.10
2017-12-17T07:06:44.166Z,2.10
2017-12-17T07:09:11.711Z,2.10
2017-12-17T07:11:39.282Z,2.10
2017-12-17T07:14:06.813Z,2.10
2017-12-17T07:16:34.404Z,2.10
2017-12-17T07:19:01.966Z,2.10
2017-12-17T07:21:29.637Z,2.10
2017-12-17T07:23:57.176Z,2.20
2017-12-17T07:26:24.746Z,2.20
2017-12-17T07:28:52.320Z,2.20
2017-12-17T07:31:19.941Z,2.20
2017-12-17T07:33:47.461Z,2.20
2017-12-17T07:36:15.773Z,2.20
2017-12-17T07:38:44.116Z,2.20
2017-12-17T07:41:11.702Z,2.20
2017-12-17T07:43:39.262Z,2.20
2017-12-17T07:46:07.622Z,2.20
2017-12-17T07:48:59.616Z,2.10
2017-12-17T07:51:28.516Z,2.20
2017-12-17T07:53:56.073Z,2.20
2017-12-17T07:56:23.635Z,2.20
2017-12-17T07:58:51.313Z,2.20
2017-12-17T08:01:18.916Z,2.30
2017-12-17T08:03:46.456Z,2.30
2017-12-17T08:06:14.030Z,2.30
2017-12-17T08:08:41.606Z,2.30
2017-12-17T08:11:09.934Z,2.30
2017-12-17T08:13:37.663Z,2.40
2017-12-17T08:16:05.978Z,2.40
2017-12-17T08:18:33.550Z,2.30
2017-12-17T08:21:01.114Z,2.30
2017-12-17T08:23:28.767Z,2.30
2017-12-17T08:25:56.367Z,2.30
2017-12-17T08:28:23.920Z,2.30
2017-12-17T08:30:51.483Z,2.30
2017-12-17T08:33:19.113Z,2.40
2017-12-17T08:35:46.690Z,2.40
2017-12-17T08:38:14.390Z,2.40
2017-12-17T08:40:41.949Z,2.40
2017-12-17T08:43:09.501Z,2.40
2017-12-17T08:45:37.154Z,2.50
2017-12-17T08:48:04.733Z,2.50
2017-12-17T08:50:32.314Z,2.50
2017-12-17T08:53:00.813Z,2.50
2017-12-17T08:55:28.433Z,2.50
2017-12-17T08:57:55.998Z,2.60
2017-12-17T09:00:23.558Z,2.60
2017-12-17T09:02:51.886Z,2.60
2017-12-17T09:05:19.469Z,2.50
2017-12-17T09:07:47.083Z,2.60
2017-12-17T09:10:15.595Z,2.70
2017-12-17T09:12:43.131Z,2.70
2017-12-17T09:15:12.477Z,2.70
2017-12-17T09:17:41.079Z,2.70
2017-12-17T09:20:08.646Z,2.80
2017-12-17T09:22:36.982Z,2.80
2017-12-17T09:25:04.551Z,2.80
2017-12-17T09:27:32.142Z,2.80
2017-12-17T09:29:59.734Z,2.80
2017-12-17T09:32:28.114Z,2.90
2017-12-17T09:34:55.671Z,2.80
2017-12-17T09:37:23.326Z,2.90
2017-12-17T09:39:50.960Z,2.90
2017-12-17T09:42:18.537Z,2.90
2017-12-17T09:44:46.142Z,3.00
2017-12-17T09:47:14.486Z,3.00
2017-12-17T09:49:42.142Z,3.00
2017-12-17T09:52:09.685Z,3.10
2017-12-17T09:54:37.353Z,3.00
2017-12-17T09:57:04.897Z,3.00
2017-12-17T09:59:32.474Z,3.20
2017-12-17T10:02:00.038Z,3.30
2017-12-17T10:04:27.593Z,3.40
2017-12-17T10:06:55.185Z,3.50
2017-12-17T10:09:22.742Z,3.50
2017-12-17T10:11:50.298Z,3.40
2017-12-17T10:14:17.862Z,3.40
2017-12-17T10:16:45.533Z,3.30
2017-12-17T10:19:13.117Z,3.40
2017-12-17T10:21:41.447Z,3.40
2017-12-17T10:24:09.044Z,3.40
2017-12-17T10:26:36.659Z,3.40
2017-12-17T10:29:04.210Z,3.30
2017-12-17T10:31:31.798Z,3.30
2017-12-17T10:33:59.362Z,3.40
2017-12-17T10:36:26.961Z,3.50
2017-12-17T10:38:55.321Z,3.40
2017-12-17T10:41:22.942Z,3.40
2017-12-17T10:43:50.522Z,3.50
2017-12-17T10:46:18.098Z,3.60
2017-12-17T10:48:45.678Z,3.60
2017-12-17T10:51:13.257Z,3.70
2017-12-17T10:53:40.846Z,3.70
2017-12-17T10:56:08.507Z,3.60
2017-12-17T10:58:36.254Z,3.60
2017-12-17T11:01:03.854Z,3.50
2017-12-17T11:03:31.565Z,3.50
2017-12-17T11:05:59.884Z,3.50
2017-12-17T11:08:27.436Z,3.50
2017-12-17T11:10:55.044Z,3.50
2017-12-17T11:13:22.731Z,3.50
2017-12-17T11:15:50.387Z,3.50
2017-12-17T11:18:17.961Z,3.50
2017-12-17T11:20:46.314Z,3.60
2017-12-17T11:23:13.959Z,3.60
2017-12-17T11:25:41.660Z,3.60
2017-12-17T11:28:09.264Z,3.50
2017-12-17T11:30:36.825Z,3.40
2017-12-17T11:33:04.488Z,3.40
2017-12-17T11:35:32.041Z,3.50
2017-12-17T11:37:59.628Z,3.50
2017-12-17T11:40:27.395Z,3.50
2017-12-17T11:42:54.967Z,3.60
2017-12-17T11:45:22.548Z,3.50
2017-12-17T11:47:50.163Z,3.60
2017-12-17T11:50:17.753Z,3.60
2017-12-17T11:52:45.331Z,3.70
2017-12-17T11:55:12.966Z,3.70
2017-12-17T11:57:40.539Z,3.70
2017-12-17T12:00:08.089Z,3.80
2017-12-17T12:02:35.720Z,3.70
2017-12-17T12:05:04.057Z,3.70
2017-12-17T12:07:31.758Z,3.70
2017-12-17T12:09:59.628Z,3.70
2017-12-17T12:12:27.230Z,3.80
2017-12-17T12:14:54.806Z,4.00
2017-12-17T12:17:22.420Z,4.20
2017-12-17T12:19:50.735Z,4.10
2017-12-17T12:22:18.379Z,4.10
2017-12-17T12:24:46.055Z,4.20
2017-12-17T12:27:13.779Z,4.30
2017-12-17T12:29:41.381Z,4.40
2017-12-17T12:32:10.430Z,4.40
2017-12-17T12:34:38.052Z,4.40
2017-12-17T12:37:05.616Z,4.30
2017-12-17T12:39:33.194Z,4.30
2017-12-17T12:42:00.936Z,4.30
2017-12-17T12:44:28.534Z,4.40
2017-12-17T12:46:56.418Z,4.30
2017-12-17T12:49:24.787Z,4.40
2017-12-17T12:51:54.354Z,4.60
2017-12-17T12:54:22.767Z,4.70
2017-12-17T12:56:51.261Z,4.70
2017-12-17T12:59:18.930Z,4.80
2017-12-17T13:01:47.319Z,4.80
2017-12-17T13:04:15.622Z,4.70
2017-12-17T13:06:43.272Z,4.70
2017-12-17T13:09:10.886Z,4.60
2017-12-17T13:11:38.459Z,4.60
2017-12-17T13:14:06.038Z,4.60
2017-12-17T13:16:33.935Z,4.60
2017-12-17T13:19:01.538Z,4.60
2017-12-17T13:21:29.402Z,4.40
2017-12-17T13:23:57.143Z,4.50
2017-12-17T13:26:25.497Z,4.20
2017-12-17T13:28:53.083Z,4.20
2017-12-17T13:31:20.709Z,4.20
2017-12-17T13:33:48.330Z,4.10
2017-12-17T13:36:15.930Z,4.10
2017-12-17T13:38:43.538Z,4.00
2017-12-17T13:41:11.868Z,3.90
2017-12-17T13:43:39.441Z,3.90
2017-12-17T13:46:07.044Z,4.00
2017-12-17T13:48:35.409Z,3.90
2017-12-17T13:51:03.108Z,3.90
2017-12-17T13:53:41.065Z,3.90
2017-12-17T13:56:09.451Z,3.90
2017-12-17T13:58:37.006Z,3.90
2017-12-17T14:01:04.554Z,3.90
2017-12-17T14:03:32.141Z,3.90
2017-12-17T14:05:59.754Z,3.90
2017-12-17T14:08:27.314Z,3.90
2017-12-17T14:10:54.859Z,3.90
2017-12-17T14:13:22.421Z,3.90
2017-12-17T14:15:50.006Z,3.90
2017-12-17T14:18:17.593Z,4.00
2017-12-17T14:20:45.178Z,4.00
2017-12-17T14:23:12.734Z,4.00
2017-12-17T14:25:40.317Z,4.10
2017-12-17T14:28:08.703Z,4.30
2017-12-17T14:30:37.049Z,4.30
2017-12-17T14:33:04.625Z,4.20
2017-12-17T14:35:32.232Z,4.20
2017-12-17T14:38:00.512Z,4.10
2017-12-17T14:40:28.074Z,4.00
2017-12-17T14:42:55.611Z,4.00
2017-12-17T14:45:23.941Z,4.00
2017-12-17T14:47:51.543Z,3.90
2017-12-17T14:50:19.990Z,3.90
2017-12-17T14:52:47.582Z,3.80
2017-12-17T14:55:15.904Z,3.80
2017-12-17T14:57:43.497Z,3.70
2017-12-17T15:00:11.072Z,3.70
2017-12-17T15:02:38.642Z,3.70
2017-12-17T15:05:06.248Z,3.70
2017-12-17T15:07:33.782Z,3.70
2017-12-17T15:10:01.394Z,3.70
2017-12-17T15:12:28.951Z,3.70
2017-12-17T15:14:56.588Z,3.70
2017-12-17T15:17:24.230Z,3.70
2017-12-17T15:19:51.789Z,3.60
2017-12-17T15:22:19.365Z,3.70
2017-12-17T15:24:46.913Z,3.60
2017-12-17T15:27:14.509Z,3.70
2017-12-17T15:29:42.050Z,3.60
2017-12-17T15:32:09.614Z,3.60
2017-12-17T15:34:37.182Z,3.60
2017-12-17T15:37:05.025Z,3.60
2017-12-17T15:39:32.605Z,3.50
2017-12-17T15:42:00.196Z,3.50
2017-12-17T15:44:28.570Z,3.50
2017-12-17T15:46:56.172Z,3.50
2017-12-17T15:49:23.738Z,3.40
2017-12-17T15:51:52.091Z,3.30
2017-12-17T15:54:19.655Z,3.30
2017-12-17T15:56:48.003Z,3.30
2017-12-17T15:59:15.564Z,3.30
2017-12-17T16:01:43.137Z,3.30
2017-12-17T16:04:10.706Z,3.40
2017-12-17T16:06:38.278Z,3.40
2017-12-17T16:09:06.664Z,3.30
2017-12-17T16:11:35.033Z,3.30
2017-12-17T16:14:02.639Z,3.30
2017-12-17T16:16:30.170Z,3.30
2017-12-17T16:18:58.516Z,3.30
2017-12-17T16:21:26.095Z,3.30
2017-12-17T16:23:53.814Z,3.30
2017-12-17T16:26:21.472Z,3.30
2017-12-17T16:28:49.025Z,3.30
2017-12-17T16:31:16.602Z,3.20
2017-12-17T16:33:45.102Z,3.20
2017-12-17T16:36:12.809Z,3.20
2017-12-17T16:38:42.050Z,3.10
2017-12-17T16:41:09.654Z,3.10
2017-12-17T16:43:37.216Z,3.10
2017-12-17T16:46:04.818Z,3.10
2017-12-17T16:48:33.184Z,3.10
2017-12-17T16:51:01.523Z,3.10
2017-12-17T16:53:29.123Z,3.10
2017-12-17T16:55:57.466Z,3.30
2017-12-17T16:58:25.921Z,3.30
2017-12-17T17:00:53.487Z,3.30
2017-12-17T17:03:21.083Z,3.30
2017-12-17T17:05:48.656Z,3.40
2017-12-17T17:08:17.011Z,3.40
2017-12-17T17:10:44.585Z,3.40
2017-12-17T17:13:12.920Z,3.50
2017-12-17T17:15:40.574Z,3.50
2017-12-17T17:18:08.133Z,3.50
2017-12-17T17:20:35.713Z,3.60
2017-12-17T17:23:03.518Z,3.60
2017-12-17T17:25:31.115Z,3.50
2017-12-17T17:27:58.725Z,3.60
2017-12-17T17:30:26.289Z,3.60
2017-12-17T17:32:53.870Z,3.70
2017-12-17T17:35:24.114Z,3.70
2017-12-17T17:37:51.714Z,3.60
2017-12-17T17:40:19.294Z,3.60
2017-12-17T17:42:46.859Z,3.50
2017-12-17T17:45:14.764Z,3.50
2017-12-17T17:47:42.443Z,3.50
2017-12-17T17:50:11.958Z,3.50
2017-12-17T17:52:39.469Z,3.50
2017-12-17T17:55:07.786Z,3.40
2017-12-17T17:57:35.379Z,3.40
2017-12-17T18:00:03.107Z,3.40
2017-12-17T18:02:30.678Z,3.40
2017-12-17T18:04:58.445Z,3.30
2017-12-17T18:07:26.032Z,3.40
2017-12-17T18:09:53.728Z,3.40
2017-12-17T18:12:22.099Z,3.50
2017-12-17T18:14:49.654Z,3.50
2017-12-17T18:17:17.254Z,3.50
2017-12-17T18:19:45.625Z,3.60
2017-12-17T18:22:13.946Z,3.50
2017-12-17T18:24:41.559Z,3.50
2017-12-17T18:27:09.119Z,3.60
2017-12-17T18:29:37.438Z,3.60
2017-12-17T18:32:05.053Z,3.60
2017-12-17T18:34:32.630Z,3.70
2017-12-17T18:37:00.949Z,3.70
2017-12-17T18:39:28.557Z,3.70
2017-12-17T18:41:56.216Z,3.70
2017-12-17T18:44:24.574Z,3.70
2017-12-17T18:46:52.142Z,3.70
2017-12-17T18:49:19.864Z,3.70
2017-12-17T18:51:47.465Z,3.70
2017-12-17T18:54:15.026Z,3.60
2017-12-17T18:56:42.623Z,3.70
2017-12-17T18:59:10.943Z,3.60
2017-12-17T19:01:38.539Z,3.60
2017-12-17T19:04:06.893Z,3.60
2017-12-17T19:06:34.506Z,3.60
2017-12-17T19:09:02.831Z,3.50
2017-12-17T19:11:30.418Z,3.50
2017-12-17T19:13:58.006Z,3.40
2017-12-17T19:16:26.344Z,3.30
2017-12-17T19:18:53.907Z,3.30
2017-12-17T19:21:21.560Z,3.30
2017-12-17T19:23:49.185Z,3.30
2017-12-17T19:26:17.537Z,3.20
2017-12-17T19:28:45.111Z,3.20
2017-12-17T19:31:12.698Z,3.20
2017-12-17T19:33:40.267Z,3.20
2017-12-17T19:36:07.826Z,3.10
2017-12-17T19:38:35.366Z,3.20
2017-12-17T19:41:03.718Z,3.10
2017-12-17T19:43:31.323Z,3.10
2017-12-17T19:45:58.856Z,3.10
2017-12-17T19:48:27.203Z,3.10
2017-12-17T19:50:54.771Z,3.10
2017-12-17T19:53:22.370Z,3.10
2017-12-17T19:55:50.773Z,3.10
2017-12-17T19:58:18.398Z,3.10
2017-12-17T20:00:46.759Z,3.30
2017-12-17T20:03:14.314Z,3.30
2017-12-17T20:05:41.905Z,3.40
2017-12-17T20:08:09.503Z,3.40
2017-12-17T20:10:37.136Z,3.50
2017-12-17T20:13:04.707Z,3.50
2017-12-17T20:15:32.292Z,3.50
2017-12-17T20:17:59.881Z,3.60
2017-12-17T20:20:27.461Z,3.60
2017-12-17T20:22:55.059Z,3.60
2017-12-17T20:25:22.679Z,3.60
2017-12-17T20:27:50.292Z,3.80
2017-12-17T20:30:17.919Z,3.70
2017-12-17T20:32:45.546Z,3.70
2017-12-17T20:35:13.882Z,3.70
2017-12-17T20:37:41.528Z,3.70
2017-12-17T20:40:09.066Z,3.70
2017-12-17T20:42:36.685Z,3.70
2017-12-17T20:45:04.251Z,3.60
2017-12-17T20:47:31.950Z,3.70
2017-12-17T20:49:59.772Z,3.70
2017-12-17T20:52:27.349Z,3.70
2017-12-17T20:54:54.959Z,3.70
2017-12-17T20:57:23.454Z,3.70
2017-12-17T20:59:51.138Z,3.70
2017-12-17T21:02:18.706Z,3.70
2017-12-17T21:04:47.134Z,3.70
2017-12-17T21:07:14.727Z,3.70
2017-12-17T21:09:42.316Z,3.70
2017-12-17T21:12:09.890Z,3.70
2017-12-17T21:14:37.551Z,3.70
2017-12-17T21:17:06.037Z,3.70
2017-12-17T21:19:33.745Z,3.60
2017-12-17T21:22:01.329Z,3.70
2017-12-17T21:24:28.912Z,3.70
2017-12-17T21:26:56.479Z,3.70
2017-12-17T21:29:25.380Z,3.70
2017-12-17T21:31:52.988Z,3.70
2017-12-17T21:34:21.921Z,3.70
2017-12-17T21:36:49.495Z,3.70
2017-12-17T21:39:17.078Z,3.70
2017-12-17T21:41:45.643Z,3.70
2017-12-17T21:44:13.218Z,3.70
2017-12-17T21:46:41.554Z,3.70
2017-12-17T21:49:09.363Z,3.70
2017-12-17T21:51:37.717Z,3.70
2017-12-17T21:54:05.288Z,3.70
2017-12-17T21:56:32.860Z,3.70
2017-12-17T21:59:01.318Z,3.70
2017-12-17T22:01:28.910Z,3.70
2017-12-17T22:03:57.262Z,3.70
2017-12-17T22:06:24.823Z,3.70
2017-12-17T22:08:52.428Z,3.70
2017-12-17T22:11:19.992Z,3.70
2017-12-17T22:13:47.597Z,3.70
2017-12-17T22:16:16.771Z,3.70
2017-12-17T22:18:45.182Z,3.70
2017-12-17T22:21:12.808Z,3.70
2017-12-17T22:23:40.384Z,3.70
2017-12-17T22:26:07.941Z,3.70
2017-12-17T22:28:35.514Z,3.80
2017-12-17T22:31:03.098Z,3.70
2017-12-17T22:33:30.649Z,3.70
2017-12-17T22:35:58.220Z,3.70
2017-12-17T22:38:25.854Z,3.70
2017-12-17T22:40:53.428Z,3.70
2017-12-17T22:43:21.002Z,3.70
2017-12-17T22:45:48.703Z,3.70
2017-12-17T22:48:17.084Z,3.70
2017-12-17T22:50:45.441Z,3.60
2017-12-17T22:53:13.502Z,3.60
2017-12-17T22:55:41.094Z,3.60
2017-12-17T22:58:09.460Z,3.60
2017-12-17T23:00:37.042Z,3.50
2017-12-17T23:03:05.686Z,3.20
2017-12-17T23:05:33.259Z,3.20
2017-12-17T23:08:00.942Z,3.20
2017-12-17T23:10:29.310Z,2.80
2017-12-17T23:12:56.851Z,2.80
2017-12-17T23:15:24.535Z,2.70
2017-12-17T23:17:52.098Z,2.70
2017-12-17T23:20:19.677Z,2.70
2017-12-17T23:22:48.232Z,2.50
2017-12-17T23:25:15.804Z,2.50
2017-12-17T23:27:43.377Z,2.50
2017-12-17T23:30:11.791Z,2.30
2017-12-17T23:32:39.350Z,2.30
2017-12-17T23:35:06.914Z,2.30
2017-12-17T23:37:34.564Z,2.20
2017-12-17T23:40:02.128Z,2.10
2017-12-17T23:42:29.701Z,2.10
2017-12-17T23:44:57.414Z,2.00
2017-12-17T23:47:24.993Z,1.90
2017-12-17T23:49:52.586Z,1.80
2017-12-17T23:52:20.170Z,1.80
2017-12-17T23:54:47.714Z,1.80
2017-12-17T23:57:15.306Z,1.70
2017-12-17T23:59:42.934Z,1.70
